עמוד ראשי
METAR-TAF:

METAR-TAF

שדות תעופה :

Sitka, אלסקה, ארצות הברית

קו רוחב: 57-02-53N, קו אורך: 135-21-53W, גובה: 6מטר

תצפית מזג אוויר נוכחית

הדו"ח נערך לפני 25דקות, בשעה 15:53 UTC
רוח 8קשר מכיוון צפון/צפון-מערב
טמפרטורת 11 צלסיוס
לחות 82%
לחץ 1018 hPa
ראות: 16.1קילומטר
מעונן בגובה 1400רגל

METAR: PASI 171553Z 33008KT 10SM OVC014 11/08 A3007 RMK AO2 SLP183 T01060078 $

זמן: 08:18 (16:18 UTC)

תחזית

הדו"ח נערך לפני 3 שעות ו 10דקות, בשעה 13:08 UTC
תחזית בתוקף מ 17 ב 13 UTC עד 18 ב 12 UTC
רוח 10קשר מכיוון צפון-מערב
ראות: 10קילומטר
עננים בינוניים בגובה 700רגל
מעונן בגובה 1000רגל
זמנית מ -
17 ב 13 UTC עד 17 ב 17 UTC
מעונן בגובה 900רגל
מ 17 ב 2000UTC
רוח 10קשר מכיוון מערב/צפון-מערב
ראות: 10קילומטר
עננים בינוניים בגובה 2000רגל

TAF: PASI 171308Z 1713/1812 31010KT P6SM BKN007 OVC010 TEMPO 1713/1717 OVC009 FM172000 30010KT P6SM BKN020

תצפיות ותחזיות מזג אוויר לגבי יותר מ- 4,000 שדות תעופה ברחבי העולם. דוחות METAR ו- TAF.

התחנות הזמינות מסומנות בנקודות צהובות ואדומות על גבי המפה.

העבר את העכבר לנקודה הצבעונית על מנת לראות את שם התחנה.

לאחר מכן, לחץ כדי לראות את תוכן ואת תחזיות מזג האוויר.

כדי לשנות את המפה: לחץ על הכפתורים הירוקים עם הפלוס השחור כדי להתקרב; על הכפתור הירוק עם המקף כדי להתרחק; או בחיצים הירוקים למפות סמוכות.


METAR-TAF: